Terminal Aerodrome Forecast
Issued by NWS Chicago, IL

Home | Current Version | Previous Version | Text Only | Print | Product List | Glossary Off
Versions: 1 2 3 4 5 6 7 8 9 10 11 12 13 14 15 16 17 18 19 20 21 22 23 24 25 26 27 28

000
FTUS43 KLOT 240526
TAFRFD
TAF
KRFD 240526Z 2406/2506 06015G22KT 5SM -SHRA OVC007
      TEMPO 2406/2407 2SM TSRAGS OVC007CB
     FM240700 06015G22KT P6SM VCSH OVC007
      TEMPO 2407/2409 2SM TSRA OVC007CB
     FM240900 07014G22KT 4SM -RADZ BR OVC005
     FM241800 03012KT 5SM -SHRA BR OVC005
     FM242100 33012KT P6SM SCT007 BKN015
     FM250200 30012G18KT P6SM OVC022=

USA.gov is the U.S. government's official web portal to all federal, state and local government web resources and services.